createdAt,value
2023-04-11T00:02:22.113Z,8.49
2023-04-11T00:04:48.877Z,8.49
2023-04-11T00:07:15.391Z,8.50
2023-04-11T00:09:42.170Z,8.48
2023-04-11T00:12:08.857Z,8.48
2023-04-11T00:14:35.401Z,8.50
2023-04-11T00:17:01.922Z,8.50
2023-04-11T00:19:28.620Z,8.53
2023-04-11T00:21:56.107Z,8.50
2023-04-11T00:24:22.544Z,8.52
2023-04-11T00:26:48.986Z,8.52
2023-04-11T00:29:15.449Z,8.50
2023-04-11T00:31:41.940Z,8.42
2023-04-11T00:34:08.417Z,8.43
2023-04-11T00:36:35.010Z,8.32
2023-04-11T00:39:01.549Z,8.30
2023-04-11T00:41:28.061Z,8.31
2023-04-11T00:43:54.674Z,8.30
2023-04-11T00:46:22.002Z,8.26
2023-04-11T00:48:48.701Z,8.21
2023-04-11T00:51:15.901Z,8.22
2023-04-11T00:53:43.128Z,8.16
2023-04-11T00:56:10.119Z,8.13
2023-04-11T00:58:37.195Z,8.11
2023-04-11T01:01:04.303Z,8.16
2023-04-11T01:03:30.877Z,8.06
2023-04-11T01:05:57.558Z,8.00
2023-04-11T01:08:24.830Z,7.99
2023-04-11T01:10:51.192Z,7.93
2023-04-11T01:13:18.360Z,7.87
2023-04-11T01:15:44.883Z,7.75
2023-04-11T01:18:11.436Z,7.74
2023-04-11T01:20:37.972Z,7.70
2023-04-11T01:23:05.688Z,7.66
2023-04-11T01:25:32.392Z,7.67
2023-04-11T01:27:58.983Z,7.65
2023-04-11T01:30:25.480Z,7.53
2023-04-11T01:32:52.027Z,7.47
2023-04-11T01:35:18.984Z,7.46
2023-04-11T01:37:45.698Z,7.37
2023-04-11T01:40:14.286Z,7.31
2023-04-11T01:42:40.830Z,7.29
2023-04-11T01:45:08.070Z,7.26
2023-04-11T01:47:34.654Z,7.17
2023-04-11T01:50:01.203Z,7.10
2023-04-11T01:52:27.634Z,7.12
2023-04-11T01:54:54.140Z,7.21
2023-04-11T01:57:20.643Z,7.23
2023-04-11T01:59:47.100Z,7.18
2023-04-11T02:02:13.681Z,7.17
2023-04-11T02:04:40.225Z,7.26
2023-04-11T02:07:06.662Z,7.30
2023-04-11T02:09:33.117Z,7.28
2023-04-11T02:11:59.609Z,7.40
2023-04-11T02:14:26.055Z,7.32
2023-04-11T02:16:54.507Z,7.30
2023-04-11T02:19:21.413Z,7.18
2023-04-11T02:21:48.164Z,7.19
2023-04-11T02:24:14.848Z,7.11
2023-04-11T02:26:42.330Z,7.04
2023-04-11T02:29:08.733Z,7.01
2023-04-11T02:31:35.307Z,6.98
2023-04-11T02:34:01.901Z,6.95
2023-04-11T02:36:28.398Z,6.91
2023-04-11T02:38:54.967Z,6.80
2023-04-11T02:41:21.592Z,6.80
2023-04-11T02:43:48.029Z,6.69
2023-04-11T02:46:14.554Z,6.63
2023-04-11T02:48:40.999Z,6.61
2023-04-11T02:51:07.644Z,6.61
2023-04-11T02:53:34.125Z,6.56
2023-04-11T02:56:00.598Z,6.55
2023-04-11T02:58:27.031Z,6.49
2023-04-11T03:00:53.506Z,6.43
2023-04-11T03:03:20.123Z,6.37
2023-04-11T03:05:47.000Z,6.37
2023-04-11T03:08:13.487Z,6.32
2023-04-11T03:10:39.959Z,6.31
2023-04-11T03:13:06.437Z,6.25
2023-04-11T03:15:32.911Z,6.26
2023-04-11T03:17:59.448Z,6.23
2023-04-11T03:20:25.957Z,6.24
2023-04-11T03:22:52.431Z,6.19
2023-04-11T03:25:18.912Z,6.16
2023-04-11T03:27:45.392Z,6.08
2023-04-11T03:30:13.282Z,6.06
2023-04-11T03:32:39.755Z,6.02
2023-04-11T03:35:06.415Z,5.94
2023-04-11T03:37:32.863Z,5.95
2023-04-11T03:39:59.366Z,5.93
2023-04-11T03:42:26.147Z,5.88
2023-04-11T03:44:52.620Z,5.86
2023-04-11T03:47:19.079Z,5.78
2023-04-11T03:49:45.516Z,5.76
2023-04-11T03:52:12.169Z,5.71
2023-04-11T03:54:38.743Z,5.64
2023-04-11T03:57:05.190Z,5.58
2023-04-11T03:59:31.691Z,5.57
2023-04-11T04:01:58.266Z,5.58
2023-04-11T04:04:24.923Z,5.58
2023-04-11T04:06:51.450Z,5.53
2023-04-11T04:09:17.920Z,5.54
2023-04-11T04:11:44.365Z,5.56
2023-04-11T04:14:10.819Z,5.60
2023-04-11T04:16:37.407Z,5.54
2023-04-11T04:19:03.884Z,5.58
2023-04-11T04:21:30.321Z,5.59
2023-04-11T04:23:57.074Z,5.57
2023-04-11T04:26:23.776Z,5.40
2023-04-11T04:28:50.624Z,5.29
2023-04-11T04:31:17.086Z,5.28
2023-04-11T04:33:43.513Z,5.24
2023-04-11T04:36:10.515Z,5.21
2023-04-11T04:38:37.021Z,5.22
2023-04-11T04:41:03.992Z,5.30
2023-04-11T04:43:32.788Z,5.41
2023-04-11T04:45:59.244Z,5.52
2023-04-11T04:48:25.789Z,5.63
2023-04-11T04:50:52.301Z,5.73
2023-04-11T04:53:18.770Z,5.78
2023-04-11T04:55:45.188Z,5.84
2023-04-11T04:58:11.633Z,5.85
2023-04-11T05:00:38.112Z,5.91
2023-04-11T05:03:04.610Z,6.00
2023-04-11T05:05:31.521Z,6.43
2023-04-11T05:07:58.037Z,7.23
2023-04-11T05:10:24.527Z,8.06
2023-04-11T05:12:51.137Z,8.71
2023-04-11T05:15:17.698Z,9.70
2023-04-11T05:17:44.209Z,10.55
2023-04-11T05:20:11.385Z,11.06
2023-04-11T05:22:37.883Z,11.74
2023-04-11T05:25:05.196Z,11.94
2023-04-11T05:27:31.635Z,12.73
2023-04-11T05:29:58.107Z,13.29
2023-04-11T05:32:24.595Z,13.79
2023-04-11T05:34:58.828Z,13.78
2023-04-11T05:37:25.942Z,13.95
2023-04-11T05:39:52.387Z,14.72
2023-04-11T05:42:18.844Z,15.37
2023-04-11T05:44:45.386Z,15.52
2023-04-11T05:47:11.880Z,15.60
2023-04-11T05:49:38.464Z,15.85
2023-04-11T05:52:05.057Z,16.34
2023-04-11T05:54:33.487Z,15.98
2023-04-11T05:57:00.395Z,16.32
2023-04-11T05:59:28.751Z,16.79
2023-04-11T06:01:55.444Z,17.19
2023-04-11T06:04:22.212Z,17.48
2023-04-11T06:06:48.865Z,17.60
2023-04-11T06:09:15.322Z,17.88
2023-04-11T06:11:41.782Z,17.88
2023-04-11T06:14:08.245Z,17.47
2023-04-11T06:16:35.056Z,16.84
2023-04-11T06:19:01.533Z,16.85
2023-04-11T06:21:28.017Z,17.38
2023-04-11T06:23:54.689Z,17.67
2023-04-11T06:26:21.271Z,18.20
2023-04-11T06:28:47.782Z,18.10
2023-04-11T06:31:14.269Z,18.29
2023-04-11T06:33:40.705Z,18.43
2023-04-11T06:36:07.488Z,18.54
2023-04-11T06:38:33.862Z,18.59
2023-04-11T06:41:00.308Z,18.75
2023-04-11T06:43:26.801Z,18.77
2023-04-11T06:45:53.278Z,18.92
2023-04-11T06:48:19.706Z,19.13
2023-04-11T06:50:47.958Z,19.10
2023-04-11T06:53:14.396Z,19.08
2023-04-11T06:55:40.883Z,19.13
2023-04-11T06:58:07.347Z,19.30
2023-04-11T07:00:33.824Z,19.26
2023-04-11T07:03:00.523Z,19.37
2023-04-11T07:05:27.151Z,19.54
2023-04-11T07:07:53.588Z,19.49
2023-04-11T07:10:20.118Z,19.82
2023-04-11T07:12:46.590Z,19.81
2023-04-11T07:15:13.028Z,19.65
2023-04-11T07:17:39.544Z,19.68
2023-04-11T07:20:06.663Z,19.60
2023-04-11T07:22:33.144Z,19.77
2023-04-11T07:24:59.615Z,19.59
2023-04-11T07:27:26.078Z,20.00
2023-04-11T07:29:52.523Z,20.15
2023-04-11T07:32:18.989Z,19.94
2023-04-11T07:34:45.447Z,20.11
2023-04-11T07:37:11.892Z,20.33
2023-04-11T07:39:38.352Z,20.40
2023-04-11T07:42:05.023Z,20.44
2023-04-11T07:44:31.382Z,20.56
2023-04-11T07:46:57.912Z,20.50
2023-04-11T07:49:24.502Z,21.04
2023-04-11T07:51:50.955Z,20.98
2023-04-11T07:54:17.433Z,20.99
2023-04-11T07:56:43.867Z,21.23
2023-04-11T07:59:10.327Z,21.38
2023-04-11T08:01:36.790Z,20.93
2023-04-11T08:04:03.511Z,21.40
2023-04-11T08:06:30.424Z,21.64
2023-04-11T08:08:56.872Z,21.55
2023-04-11T08:11:23.374Z,21.87
2023-04-11T08:13:50.041Z,21.72
2023-04-11T08:16:16.568Z,21.34
2023-04-11T08:18:44.253Z,21.63
2023-04-11T08:21:10.866Z,21.90
2023-04-11T08:23:37.294Z,22.30
2023-04-11T08:26:03.792Z,21.63
2023-04-11T08:28:30.236Z,21.29
2023-04-11T08:30:56.730Z,20.55
2023-04-11T08:33:24.080Z,20.39
2023-04-11T08:35:50.503Z,20.67
2023-04-11T08:38:16.954Z,19.84
2023-04-11T08:40:43.428Z,19.87
2023-04-11T08:43:10.264Z,20.49
2023-04-11T08:45:36.730Z,20.98
2023-04-11T08:48:03.215Z,20.93
2023-04-11T08:50:29.702Z,21.22
2023-04-11T08:52:59.542Z,21.66
2023-04-11T08:55:25.996Z,21.98
2023-04-11T08:57:52.465Z,21.88
2023-04-11T09:00:24.128Z,22.01
2023-04-11T09:02:56.919Z,22.02
2023-04-11T09:05:29.550Z,22.04
2023-04-11T09:07:57.653Z,21.90
2023-04-11T09:10:24.986Z,22.06
2023-04-11T09:12:51.590Z,21.91
2023-04-11T09:15:18.761Z,21.31
2023-04-11T09:17:45.241Z,21.26
2023-04-11T09:20:21.664Z,21.45
2023-04-11T09:22:49.764Z,21.63
2023-04-11T09:25:17.714Z,21.61
2023-04-11T09:27:44.371Z,21.56
2023-04-11T09:30:25.358Z,21.28
2023-04-11T09:32:53.166Z,21.69
2023-04-11T09:35:24.304Z,21.73
2023-04-11T09:37:53.984Z,21.86
2023-04-11T09:40:23.206Z,21.61
2023-04-11T09:43:00.171Z,21.81
2023-04-11T09:45:28.196Z,21.73
2023-04-11T09:47:56.345Z,21.52
2023-04-11T09:50:24.387Z,21.63
2023-04-11T09:52:51.089Z,21.83
2023-04-11T09:55:22.923Z,21.91
2023-04-11T09:57:51.625Z,21.98
2023-04-11T10:00:20.326Z,21.68
2023-04-11T10:02:48.977Z,21.47
2023-04-11T10:05:17.766Z,21.36
2023-04-11T10:07:53.783Z,21.43
2023-04-11T10:10:22.958Z,21.75
2023-04-11T10:12:50.704Z,21.83
2023-04-11T10:15:18.511Z,21.61
2023-04-11T10:18:10.897Z,21.20
2023-04-11T10:20:46.101Z,21.73
2023-04-11T10:23:13.861Z,22.04
2023-04-11T10:25:59.714Z,21.67
2023-04-11T10:28:34.321Z,21.83
2023-04-11T10:31:02.858Z,21.93
2023-04-11T10:33:29.632Z,22.09
2023-04-11T10:36:07.921Z,22.37
2023-04-11T10:38:40.487Z,22.24
2023-04-11T10:41:25.066Z,22.22
2023-04-11T10:43:52.929Z,22.27
2023-04-11T10:46:21.560Z,22.13
2023-04-11T10:49:01.874Z,22.39
2023-04-11T10:51:33.661Z,22.05
2023-04-11T10:54:00.916Z,22.04
2023-04-11T10:56:43.174Z,22.40
2023-04-11T10:59:31.148Z,22.64
2023-04-11T11:01:58.755Z,22.32
2023-04-11T11:04:32.554Z,22.34
2023-04-11T11:07:00.804Z,22.23
2023-04-11T11:09:27.457Z,22.11
2023-04-11T11:12:16.329Z,22.32
2023-04-11T11:14:45.091Z,21.80
2023-04-11T11:17:13.413Z,21.36
2023-04-11T11:19:45.022Z,21.27
2023-04-11T11:22:15.663Z,21.43
2023-04-11T11:24:42.103Z,21.40
2023-04-11T11:27:18.951Z,21.44
2023-04-11T11:29:45.413Z,21.47
2023-04-11T11:32:24.185Z,21.70
2023-04-11T11:34:50.629Z,21.71
2023-04-11T11:37:17.095Z,21.84
2023-04-11T11:39:43.873Z,22.18
2023-04-11T11:42:10.891Z,22.55
2023-04-11T11:44:37.404Z,22.43
2023-04-11T11:47:07.735Z,22.26
2023-04-11T11:49:44.330Z,22.55
2023-04-11T11:52:11.530Z,22.35
2023-04-11T11:54:45.061Z,22.46
2023-04-11T11:57:11.559Z,22.51
2023-04-11T11:59:37.973Z,22.63
2023-04-11T12:02:04.678Z,22.64
2023-04-11T12:04:32.390Z,22.80
2023-04-11T12:07:08.138Z,22.66
2023-04-11T12:09:34.612Z,22.70
2023-04-11T12:12:00.945Z,22.76
2023-04-11T12:14:27.404Z,22.67
2023-04-11T12:16:54.187Z,22.51
2023-04-11T12:19:20.618Z,22.65
2023-04-11T12:21:47.072Z,22.46
2023-04-11T12:24:13.558Z,22.01
2023-04-11T12:26:45.571Z,21.77
2023-04-11T12:29:19.377Z,21.66
2023-04-11T12:31:46.116Z,21.68
2023-04-11T12:34:12.685Z,21.78
2023-04-11T12:36:39.180Z,21.51
2023-04-11T12:39:05.710Z,21.58
2023-04-11T12:41:32.822Z,21.44
2023-04-11T12:43:59.361Z,21.51
2023-04-11T12:46:25.834Z,21.24
2023-04-11T12:48:52.333Z,21.23
2023-04-11T12:51:18.789Z,21.13
2023-04-11T12:53:45.268Z,21.13
2023-04-11T12:56:11.712Z,21.13
2023-04-11T12:58:38.167Z,21.06
2023-04-11T13:01:04.815Z,21.08
2023-04-11T13:03:31.337Z,20.87
2023-04-11T13:05:57.922Z,20.73
2023-04-11T13:08:24.341Z,20.72
2023-04-11T13:10:50.755Z,20.81
2023-04-11T13:13:18.847Z,20.52
2023-04-11T13:15:45.493Z,20.28
2023-04-11T13:18:11.966Z,20.44
2023-04-11T13:20:38.480Z,20.43
2023-04-11T13:23:04.986Z,20.39
2023-04-11T13:25:31.485Z,20.40
2023-04-11T13:27:57.951Z,20.24
2023-04-11T13:30:24.387Z,20.13
2023-04-11T13:32:50.876Z,20.00
2023-04-11T13:35:17.343Z,19.67
2023-04-11T13:37:43.777Z,19.66
2023-04-11T13:40:10.437Z,19.57
2023-04-11T13:42:36.940Z,19.14
2023-04-11T13:45:03.777Z,19.06
2023-04-11T13:47:30.240Z,19.03
2023-04-11T13:49:56.702Z,18.83
2023-04-11T13:52:23.175Z,18.88
2023-04-11T13:54:49.654Z,18.84
2023-04-11T13:57:16.088Z,18.77
2023-04-11T13:59:42.504Z,18.63
2023-04-11T14:02:09.027Z,18.65
2023-04-11T14:04:35.637Z,18.56
2023-04-11T14:07:02.162Z,18.57
2023-04-11T14:09:28.634Z,18.49
2023-04-11T14:11:55.099Z,18.42
2023-04-11T14:14:21.661Z,18.30
2023-04-11T14:16:48.177Z,18.22
2023-04-11T14:19:14.689Z,18.12
2023-04-11T14:21:41.203Z,17.90
2023-04-11T14:24:07.916Z,17.80
2023-04-11T14:26:34.388Z,17.58
2023-04-11T14:29:00.856Z,17.51
2023-04-11T14:31:27.552Z,17.56
2023-04-11T14:33:54.220Z,17.45
2023-04-11T14:36:20.868Z,17.25
2023-04-11T14:38:47.379Z,17.14
2023-04-11T14:41:13.873Z,17.07
2023-04-11T14:43:41.258Z,17.10
2023-04-11T14:46:07.870Z,17.13
2023-04-11T14:48:34.365Z,17.20
2023-04-11T14:51:03.179Z,17.39
2023-04-11T14:53:29.705Z,17.46
2023-04-11T14:55:56.193Z,17.52
2023-04-11T14:58:22.623Z,17.69
2023-04-11T15:00:49.110Z,17.59
2023-04-11T15:03:15.762Z,17.67
2023-04-11T15:05:42.400Z,17.77
2023-04-11T15:08:08.874Z,17.82
2023-04-11T15:10:35.385Z,17.82
2023-04-11T15:13:01.943Z,17.84
2023-04-11T15:15:28.471Z,17.60
2023-04-11T15:18:19.730Z,17.41
2023-04-11T15:20:46.291Z,17.33
2023-04-11T15:23:12.777Z,17.08
2023-04-11T15:25:39.303Z,16.88
2023-04-11T15:28:05.766Z,16.80
2023-04-11T15:30:32.216Z,16.62
2023-04-11T15:32:58.721Z,16.53
2023-04-11T15:35:25.178Z,16.40
2023-04-11T15:37:51.644Z,16.38
2023-04-11T15:40:18.111Z,16.26
2023-04-11T15:42:44.568Z,16.16
2023-04-11T15:45:11.645Z,16.16
2023-04-11T15:47:38.145Z,16.02
2023-04-11T15:50:05.023Z,15.95
2023-04-11T15:52:31.499Z,15.98
2023-04-11T15:54:57.988Z,15.85
2023-04-11T15:57:24.508Z,15.84
2023-04-11T15:59:50.998Z,15.80
2023-04-11T16:02:17.596Z,15.71
2023-04-11T16:04:46.358Z,15.57
2023-04-11T16:07:14.605Z,15.55
2023-04-11T16:09:41.115Z,15.54
2023-04-11T16:12:07.621Z,15.50
2023-04-11T16:14:34.113Z,15.41
2023-04-11T16:17:00.606Z,15.21
2023-04-11T16:19:27.052Z,15.06
2023-04-11T16:21:53.520Z,14.97
2023-04-11T16:24:20.035Z,14.83
2023-04-11T16:26:46.491Z,14.78
2023-04-11T16:29:12.928Z,14.70
2023-04-11T16:31:39.453Z,14.61
2023-04-11T16:34:05.898Z,14.54
2023-04-11T16:36:32.416Z,14.47
2023-04-11T16:38:58.869Z,14.36
2023-04-11T16:41:25.374Z,14.28
2023-04-11T16:43:52.022Z,14.21
2023-04-11T16:46:18.570Z,14.10
2023-04-11T16:48:45.095Z,14.01
2023-04-11T16:51:11.981Z,13.95
2023-04-11T16:53:39.161Z,13.86
2023-04-11T16:56:05.713Z,13.81
2023-04-11T16:58:32.268Z,13.70
2023-04-11T17:01:00.087Z,13.62
2023-04-11T17:03:26.764Z,13.58
2023-04-11T17:05:53.426Z,13.54
2023-04-11T17:08:19.957Z,13.41
2023-04-11T17:10:46.391Z,13.37
2023-04-11T17:13:12.851Z,13.29
2023-04-11T17:15:39.304Z,13.23
2023-04-11T17:18:05.845Z,13.15
2023-04-11T17:20:32.290Z,13.05
2023-04-11T17:22:59.105Z,13.01
2023-04-11T17:25:25.627Z,12.97
2023-04-11T17:27:52.078Z,12.92
2023-04-11T17:30:18.648Z,12.83
2023-04-11T17:32:47.936Z,12.77
2023-04-11T17:35:14.507Z,12.78
2023-04-11T17:37:41.030Z,12.72
2023-04-11T17:40:08.079Z,12.64
2023-04-11T17:42:34.511Z,12.62
2023-04-11T17:45:10.003Z,12.56
2023-04-11T17:47:42.902Z,12.57
2023-04-11T17:50:11.133Z,12.53
2023-04-11T17:52:40.076Z,12.46
2023-04-11T17:55:10.594Z,12.43
2023-04-11T17:57:37.509Z,12.41
2023-04-11T18:00:05.129Z,12.34
2023-04-11T18:02:31.685Z,12.30
2023-04-11T18:04:58.436Z,12.25
2023-04-11T18:07:24.981Z,12.21
2023-04-11T18:09:51.410Z,12.23
2023-04-11T18:12:17.850Z,12.21
2023-04-11T18:14:44.316Z,12.14
2023-04-11T18:17:10.739Z,12.12
2023-04-11T18:19:37.183Z,12.08
2023-04-11T18:22:03.616Z,12.04
2023-04-11T18:24:30.073Z,12.02
2023-04-11T18:26:56.552Z,11.97
2023-04-11T18:29:22.950Z,11.96
2023-04-11T18:31:49.440Z,11.89
2023-04-11T18:34:16.069Z,11.81
2023-04-11T18:36:43.411Z,11.77
2023-04-11T18:39:10.013Z,11.74
2023-04-11T18:41:36.528Z,11.74
2023-04-11T18:44:03.556Z,11.71
2023-04-11T18:46:32.567Z,11.69
2023-04-11T18:49:00.067Z,11.64
2023-04-11T18:51:26.602Z,11.65
2023-04-11T18:53:53.040Z,11.60
2023-04-11T18:56:19.515Z,11.51
2023-04-11T18:58:48.714Z,11.48
2023-04-11T19:01:17.525Z,11.49
2023-04-11T19:03:44.605Z,11.47
2023-04-11T19:06:11.588Z,11.46
2023-04-11T19:08:38.176Z,11.48
2023-04-11T19:11:04.769Z,11.51
2023-04-11T19:13:31.236Z,11.47
2023-04-11T19:15:57.789Z,11.47
2023-04-11T19:18:24.323Z,11.45
2023-04-11T19:20:50.788Z,11.40
2023-04-11T19:23:17.208Z,11.35
2023-04-11T19:25:43.755Z,11.32
2023-04-11T19:28:10.193Z,11.36
2023-04-11T19:30:36.661Z,11.37
2023-04-11T19:33:03.169Z,11.34
2023-04-11T19:35:29.702Z,11.31
2023-04-11T19:37:56.189Z,11.29
2023-04-11T19:40:22.630Z,11.29
2023-04-11T19:42:49.397Z,11.30
2023-04-11T19:45:15.885Z,11.26
2023-04-11T19:47:42.604Z,11.21
2023-04-11T19:50:11.105Z,11.17
2023-04-11T19:52:37.572Z,11.15
2023-04-11T19:55:04.375Z,11.12
2023-04-11T19:57:30.823Z,11.06
2023-04-11T19:59:58.059Z,11.02
2023-04-11T20:02:24.551Z,11.02
2023-04-11T20:04:51.055Z,11.02
2023-04-11T20:07:17.673Z,11.01
2023-04-11T20:09:44.196Z,11.00
2023-04-11T20:12:10.625Z,10.96
2023-04-11T20:14:37.082Z,10.96
2023-04-11T20:17:05.361Z,11.02
2023-04-11T20:19:31.835Z,11.04
2023-04-11T20:21:58.284Z,11.04
2023-04-11T20:24:24.820Z,11.04
2023-04-11T20:26:51.329Z,11.03
2023-04-11T20:29:17.864Z,11.01
2023-04-11T20:31:44.407Z,11.12
2023-04-11T20:34:10.864Z,11.10
2023-04-11T20:36:37.416Z,11.06
2023-04-11T20:39:03.977Z,11.01
2023-04-11T20:41:30.456Z,10.98
2023-04-11T20:43:57.055Z,10.93
2023-04-11T20:46:23.600Z,10.87
2023-04-11T20:48:51.522Z,10.89
2023-04-11T20:51:17.967Z,10.85
2023-04-11T20:53:44.418Z,10.79
2023-04-11T20:56:10.915Z,10.72
2023-04-11T20:58:37.352Z,10.68
2023-04-11T21:01:03.933Z,10.60
2023-04-11T21:03:30.700Z,10.57
2023-04-11T21:05:57.298Z,10.55
2023-04-11T21:08:23.788Z,10.53
2023-04-11T21:10:50.224Z,10.48
2023-04-11T21:13:16.664Z,10.47
2023-04-11T21:15:43.151Z,10.45
2023-04-11T21:18:09.742Z,10.44
2023-04-11T21:20:39.414Z,10.40
2023-04-11T21:23:05.868Z,10.36
2023-04-11T21:25:32.413Z,10.33
2023-04-11T21:27:58.883Z,10.25
2023-04-11T21:30:25.371Z,10.18
2023-04-11T21:32:51.874Z,10.19
2023-04-11T21:35:18.514Z,10.05
2023-04-11T21:37:46.532Z,10.02
2023-04-11T21:40:14.242Z,9.99
2023-04-11T21:42:40.847Z,9.97
2023-04-11T21:45:08.180Z,10.00
2023-04-11T21:47:34.711Z,9.93
2023-04-11T21:50:01.202Z,9.81
2023-04-11T21:52:27.667Z,9.80
2023-04-11T21:54:54.149Z,9.81
2023-04-11T21:57:20.623Z,9.79
2023-04-11T21:59:47.112Z,9.82
2023-04-11T22:02:13.716Z,9.82
2023-04-11T22:04:51.702Z,9.85
2023-04-11T22:07:26.713Z,9.84
2023-04-11T22:09:53.202Z,9.84
2023-04-11T22:12:19.522Z,9.87
2023-04-11T22:14:45.988Z,9.85
2023-04-11T22:17:12.450Z,9.85
2023-04-11T22:19:38.922Z,9.93
2023-04-11T22:22:05.423Z,9.92
2023-04-11T22:24:31.947Z,9.94
2023-04-11T22:26:58.499Z,9.94
2023-04-11T22:29:25.496Z,9.96
2023-04-11T22:31:52.478Z,9.99
2023-04-11T22:34:19.052Z,9.96
2023-04-11T22:36:45.516Z,10.03
2023-04-11T22:39:11.943Z,10.07
2023-04-11T22:41:38.473Z,10.10
2023-04-11T22:44:05.403Z,10.13
2023-04-11T22:46:36.157Z,10.15
2023-04-11T22:49:02.641Z,10.12
2023-04-11T22:51:29.122Z,10.14
2023-04-11T22:53:56.821Z,10.10
2023-04-11T22:56:23.450Z,10.07
2023-04-11T22:58:49.915Z,10.09
2023-04-11T23:01:16.440Z,10.14
2023-04-11T23:03:43.859Z,10.09
2023-04-11T23:06:10.387Z,10.05
2023-04-11T23:08:36.859Z,10.00
2023-04-11T23:11:03.440Z,9.96
2023-04-11T23:13:29.892Z,9.96
2023-04-11T23:15:56.550Z,9.97
2023-04-11T23:18:22.993Z,9.97
2023-04-11T23:20:49.453Z,9.95
2023-04-11T23:23:16.624Z,9.90
2023-04-11T23:25:43.107Z,9.92
2023-04-11T23:28:09.693Z,9.85
2023-04-11T23:30:36.240Z,9.84
2023-04-11T23:33:04.202Z,9.80
2023-04-11T23:35:30.715Z,9.82
2023-04-11T23:37:57.805Z,9.79
2023-04-11T23:40:24.248Z,9.77
2023-04-11T23:42:50.696Z,9.75
2023-04-11T23:45:17.292Z,9.72
2023-04-11T23:47:43.846Z,9.73
2023-04-11T23:50:10.768Z,9.73
2023-04-11T23:52:37.230Z,9.69
2023-04-11T23:55:03.873Z,9.73
2023-04-11T23:57:30.358Z,9.77
2023-04-11T23:59:56.813Z,9.76
